Time;durP1;ratioP1;P1;durP2;ratioP2;P2;SDS_P1;SDS_P2;PMS_P1;PMS_P2;Temp;Humidity;BMP_temperature;BMP_pressure;BME280_temperature;BME280_humidity;BME280_pressure;Samples;Min_cycle;Max_cycle;Signal;HPM_P1;HPM_P2
2023/11/27 00:00:23;;;;;;;;;3.00;3.00;;;;;6.66;62.29;100997.47;5061578;28;45510;-59
2023/11/27 00:02:49;;;;;;;;;6.00;5.00;;;;;6.67;62.50;100990.41;5060234;28;45409;-57
2023/11/27 00:05:14;;;;;;;;;5.00;5.00;;;;;6.65;62.24;100989.59;5060160;28;45280;-59
2023/11/27 00:07:39;;;;;;;;;5.00;5.00;;;;;6.60;62.18;100981.81;5058672;28;72683;-59
2023/11/27 00:10:05;;;;;;;;;11.67;7.67;;;;;6.60;63.13;100973.88;5061999;28;61934;-59
2023/11/27 00:12:30;;;;;;;;;5.00;5.00;;;;;6.61;62.65;100981.75;5061573;28;45678;-59
2023/11/27 00:14:56;;;;;;;;;5.00;4.00;;;;;6.56;62.53;100970.47;5062441;28;57780;-59
2023/11/27 00:17:21;;;;;;;;;7.00;6.00;;;;;6.55;62.94;100970.53;5058493;28;45356;-60
2023/11/27 00:19:46;;;;;;;;;5.33;4.67;;;;;6.57;62.71;100968.69;5057611;28;46124;-59
2023/11/27 00:22:13;;;;;;;;;4.00;3.67;;;;;6.59;63.01;100974.78;5059164;27;70526;-59
2023/11/27 00:24:40;;;;;;;;;5.67;5.67;;;;;6.60;62.75;100972.09;5057507;28;45406;-59
2023/11/27 00:27:06;;;;;;;;;9.33;5.33;;;;;6.62;62.44;100970.28;5059759;28;45552;-59
2023/11/27 00:29:31;;;;;;;;;5.00;5.00;;;;;6.62;62.91;100969.41;5064099;28;46206;-59
2023/11/27 00:31:56;;;;;;;;;4.00;2.00;;;;;6.60;63.01;100964.16;5059941;28;73377;-59
2023/11/27 00:34:22;;;;;;;;;7.67;7.67;;;;;6.65;62.82;100964.03;5062151;28;66180;-59
2023/11/27 00:36:47;;;;;;;;;3.33;3.33;;;;;6.65;62.98;100958.75;5063826;28;45452;-59
2023/11/27 00:39:12;;;;;;;;;5.00;3.67;;;;;6.69;62.47;100960.38;5057465;28;68078;-60
2023/11/27 00:41:38;;;;;;;;;5.33;5.33;;;;;6.72;62.75;100954.97;5064916;28;73326;-59
2023/11/27 00:44:03;;;;;;;;;4.00;4.00;;;;;6.77;62.79;100945.13;5058855;28;60851;-59
2023/11/27 00:46:28;;;;;;;;;5.00;3.00;;;;;6.84;62.64;100947.59;5058983;28;45655;-59
2023/11/27 00:48:54;;;;;;;;;11.67;6.00;;;;;6.86;63.11;100949.28;5060035;28;53361;-59
2023/11/27 00:51:19;;;;;;;;;5.00;5.00;;;;;6.88;62.63;100946.56;5060480;28;45429;-59
2023/11/27 00:53:45;;;;;;;;;5.00;5.00;;;;;6.88;62.60;100930.69;5062658;28;69401;-59
2023/11/27 00:56:10;;;;;;;;;8.33;5.00;;;;;6.91;62.79;100926.19;5058746;28;51078;-59
2023/11/27 00:58:36;;;;;;;;;3.00;3.00;;;;;6.95;62.85;100919.88;5066504;28;45446;-59
2023/11/27 01:01:01;;;;;;;;;5.00;5.00;;;;;7.01;62.91;100916.16;5060557;28;70599;-59
2023/11/27 01:03:26;;;;;;;;;7.67;6.33;;;;;7.03;62.41;100905.56;5061396;28;65432;-59
2023/11/27 01:05:53;;;;;;;;;4.00;4.00;;;;;6.99;62.50;100909.19;5089849;27;48307;-59
2023/11/27 01:08:19;;;;;;;;;6.67;6.00;;;;;6.99;62.42;100899.50;5059586;28;45545;-59
2023/11/27 01:10:44;;;;;;;;;4.00;4.00;;;;;6.97;62.36;100889.88;5056728;28;45521;-59
2023/11/27 01:13:10;;;;;;;;;4.33;4.33;;;;;6.98;62.52;100886.31;5059243;28;45359;-59
2023/11/27 01:15:35;;;;;;;;;9.67;5.00;;;;;7.01;62.79;100883.56;5058276;28;45355;-59
2023/11/27 01:18:01;;;;;;;;;4.67;4.67;;;;;7.04;62.51;100875.50;5057853;28;45283;-59
2023/11/27 01:20:27;;;;;;;;;3.67;3.00;;;;;7.03;62.81;100864.09;5057950;28;45260;-59
2023/11/27 01:22:53;;;;;;;;;5.33;5.33;;;;;7.04;63.08;100860.53;5062655;28;45344;-59
2023/11/27 01:25:18;;;;;;;;;4.00;3.00;;;;;7.08;63.05;100856.00;5044158;28;45293;-58
2023/11/27 01:27:44;;;;;;;;;4.67;3.00;;;;;7.10;63.21;100854.16;5058645;28;46875;-59
2023/11/27 01:30:10;;;;;;;;;4.00;4.00;;;;;7.11;63.39;100853.25;5062320;28;45332;-59
2023/11/27 01:32:35;;;;;;;;;5.67;4.33;;;;;7.09;62.72;100845.38;5059758;28;45453;-59
2023/11/27 01:35:00;;;;;;;;;5.00;5.00;;;;;7.05;62.83;100843.75;5057703;28;68350;-59
2023/11/27 01:37:26;;;;;;;;;7.33;4.00;;;;;7.06;63.28;100839.31;5058345;28;72493;-59
2023/11/27 01:39:51;;;;;;;;;4.00;4.00;;;;;7.07;62.79;100839.25;5057749;28;45624;-59
2023/11/27 01:42:17;;;;;;;;;3.00;3.00;;;;;7.08;62.88;100829.56;5061500;28;45322;-60
2023/11/27 01:44:42;;;;;;;;;3.67;3.67;;;;;7.10;63.18;100841.81;5056193;28;71375;-59
2023/11/27 01:47:10;;;;;;;;;6.00;4.33;;;;;7.17;62.85;100841.56;5057721;28;75575;-60
2023/11/27 01:49:37;;;;;;;;;4.00;3.67;;;;;7.16;62.74;100838.06;5060702;28;45385;-59
2023/11/27 01:52:05;;;;;;;;;3.00;3.00;;;;;7.18;62.51;100830.06;5058090;28;45472;-59
2023/11/27 01:54:31;;;;;;;;;2.33;2.33;;;;;7.17;62.48;100836.28;5056726;28;45511;-59
2023/11/27 01:56:57;;;;;;;;;3.67;3.67;;;;;7.19;62.61;100834.47;5057125;28;46004;-59
2023/11/27 01:59:22;;;;;;;;;3.33;3.33;;;;;7.21;62.61;100824.66;5056630;28;68311;-58
2023/11/27 02:01:47;;;;;;;;;4.00;4.00;;;;;7.19;62.34;100813.28;5056466;28;69545;-59
2023/11/27 02:04:13;;;;;;;;;3.00;3.00;;;;;7.20;62.29;100820.31;5055840;28;69577;-59
2023/11/27 02:06:38;;;;;;;;;6.00;5.00;;;;;7.21;62.37;100808.78;5057512;28;47109;-59
2023/11/27 02:09:05;;;;;;;;;5.00;4.00;;;;;7.25;62.37;100799.84;5061221;28;45302;-59
2023/11/27 02:11:30;;;;;;;;;4.67;4.67;;;;;7.27;62.32;100800.63;5059538;28;45293;-59
2023/11/27 02:13:55;;;;;;;;;3.00;3.00;;;;;7.29;62.09;100801.47;5057211;28;58199;-59
2023/11/27 02:16:21;;;;;;;;;4.00;4.00;;;;;7.28;62.29;100794.44;5056841;28;56461;-59
2023/11/27 02:18:46;;;;;;;;;3.67;2.67;;;;;7.31;62.58;100789.03;5053843;28;68249;-59
2023/11/27 02:21:12;;;;;;;;;5.00;5.00;;;;;7.34;62.85;100783.63;5061390;28;67694;-59
2023/11/27 02:23:37;;;;;;;;;3.67;2.00;;;;;7.33;63.90;100784.53;5058814;27;64445;-59
2023/11/27 02:26:04;;;;;;;;;6.00;6.00;;;;;7.32;64.51;100774.03;5058407;28;46421;-60
2023/11/27 02:28:29;;;;;;;;;2.67;2.67;;;;;7.30;63.73;100771.44;5056940;28;45360;-59
2023/11/27 02:30:54;;;;;;;;;4.67;3.00;;;;;7.29;64.23;100769.72;5090898;27;45851;-59
2023/11/27 02:33:21;;;;;;;;;3.67;3.00;;;;;7.31;63.81;100770.50;5056620;28;51352;-59
2023/11/27 02:35:47;;;;;;;;;6.67;4.00;;;;;7.29;63.74;100759.13;5090377;27;45419;-59
2023/11/27 02:38:12;;;;;;;;;2.00;2.00;;;;;7.29;64.61;100752.03;5039929;28;45615;-59
2023/11/27 02:40:38;;;;;;;;;3.33;3.00;;;;;7.32;64.84;100748.41;5055709;28;70915;-60
2023/11/27 02:43:03;;;;;;;;;5.00;3.00;;;;;7.33;64.46;100747.50;5056844;28;70186;-59
2023/11/27 02:45:29;;;;;;;;;3.67;3.67;;;;;7.35;64.35;100744.78;5059043;28;45315;-59
2023/11/27 02:47:55;;;;;;;;;2.00;2.00;;;;;7.34;64.81;100737.75;5058851;28;46578;-59
2023/11/27 02:50:21;;;;;;;;;7.00;4.00;;;;;7.36;65.14;100742.09;5067054;28;45500;-59
2023/11/27 02:52:46;;;;;;;;;4.00;2.00;;;;;7.35;65.05;100731.56;5071114;28;47182;-59
2023/11/27 02:55:11;;;;;;;;;4.00;4.00;;;;;7.32;64.88;100716.66;5058759;28;71766;-60
2023/11/27 02:57:37;;;;;;;;;4.00;4.00;;;;;7.32;64.99;100721.94;5066049;28;45361;-59
2023/11/27 03:00:05;;;;;;;;;4.33;3.67;;;;;7.34;65.41;100714.84;5057912;28;45597;-59
2023/11/27 03:02:31;;;;;;;;;2.33;2.33;;;;;7.33;65.25;100717.53;5062007;28;45573;-59
2023/11/27 03:04:56;;;;;;;;;5.00;5.00;;;;;7.26;64.83;100712.47;5061485;28;46289;-59
2023/11/27 03:07:21;;;;;;;;;3.33;3.33;;;;;7.19;64.83;100703.03;5063884;28;72231;-59
2023/11/27 03:09:48;;;;;;;;;4.67;3.33;;;;;7.16;65.01;100700.50;5061034;28;64802;-59
2023/11/27 03:12:13;;;;;;;;;4.00;4.00;;;;;7.10;65.18;100696.31;5061593;28;45458;-59
2023/11/27 03:14:39;;;;;;;;;1.00;0.00;;;;;7.14;65.49;100698.84;5060931;28;74627;-59
2023/11/27 03:17:04;;;;;;;;;6.33;3.00;;;;;7.14;65.53;100697.03;5063521;28;45319;-59
2023/11/27 03:19:29;;;;;;;;;4.00;3.00;;;;;7.17;65.78;100688.13;5063177;28;45707;-59
2023/11/27 03:21:55;;;;;;;;;3.33;2.00;;;;;7.15;65.75;100680.25;5064682;28;60713;-59
2023/11/27 03:24:20;;;;;;;;;5.67;5.00;;;;;7.11;65.53;100673.38;5087854;27;69410;-59
2023/11/27 03:26:45;;;;;;;;;1.00;1.00;;;;;7.06;65.77;100667.38;5063698;28;72996;-59
2023/11/27 03:29:13;;;;;;;;;4.00;4.00;;;;;7.00;66.06;100664.97;5090779;27;58000;-58
2023/11/27 03:31:38;;;;;;;;;5.33;4.00;;;;;6.95;65.77;100654.56;5068877;27;45380;-59
2023/11/27 03:34:03;;;;;;;;;5.00;4.00;;;;;6.90;65.92;100648.59;5059899;28;72370;-59
2023/11/27 03:36:29;;;;;;;;;4.00;3.00;;;;;6.83;66.24;100641.78;5063656;28;73374;-59
2023/11/27 03:38:54;;;;;;;;;5.00;4.00;;;;;6.75;66.74;100637.66;5061253;28;68283;-59
2023/11/27 03:41:23;;;;;;;;;3.00;3.00;;;;;6.73;66.63;100617.50;5061849;28;53939;-58
2023/11/27 03:43:48;;;;;;;;;2.67;2.00;;;;;6.73;66.73;100615.69;5078579;27;45437;-59
2023/11/27 03:46:14;;;;;;;;;4.67;4.00;;;;;6.69;67.51;100606.16;5061156;28;45233;-59
2023/11/27 03:48:39;;;;;;;;;2.33;2.00;;;;;6.62;68.50;100615.22;5061448;28;45437;-59
2023/11/27 03:51:08;;;;;;;;;4.33;3.00;;;;;6.56;68.35;100613.66;5075944;27;45354;-59
2023/11/27 03:53:37;;;;;;;;;3.00;3.00;;;;;6.57;68.61;100607.47;5060765;28;48789;-59
2023/11/27 03:56:04;;;;;;;;;4.67;3.00;;;;;6.53;69.18;100597.06;5060328;28;45300;-61
2023/11/27 03:58:29;;;;;;;;;4.33;4.33;;;;;6.40;69.79;100602.78;5068323;28;46316;-59
2023/11/27 04:00:55;;;;;;;;;2.00;2.00;;;;;6.36;69.63;100598.53;5059295;28;68680;-58
2023/11/27 04:03:20;;;;;;;;;3.00;3.00;;;;;6.33;69.95;100590.72;5059601;28;76242;-59
2023/11/27 04:05:47;;;;;;;;;2.33;2.33;;;;;6.25;70.83;100583.06;5041568;28;73200;-59
2023/11/27 04:08:12;;;;;;;;;4.00;4.00;;;;;6.21;71.29;100584.09;5059447;28;45526;-59
2023/11/27 04:10:38;;;;;;;;;3.33;3.33;;;;;6.17;71.72;100582.47;5067178;28;45492;-59
2023/11/27 04:13:04;;;;;;;;;3.00;3.00;;;;;6.14;72.58;100587.88;5062979;28;46353;-59
2023/11/27 04:15:30;;;;;;;;;2.67;2.67;;;;;6.10;72.04;100586.22;5060341;28;45394;-59
2023/11/27 04:17:56;;;;;;;;;2.00;2.00;;;;;6.16;72.71;100577.25;5059385;28;45426;-59
2023/11/27 04:20:22;;;;;;;;;2.67;2.00;;;;;6.21;72.70;100575.31;5041891;28;45596;-59
2023/11/27 04:22:47;;;;;;;;;4.00;3.00;;;;;6.24;72.67;100565.47;5059685;28;68739;-58
2023/11/27 04:25:13;;;;;;;;;3.67;3.00;;;;;6.20;73.42;100560.38;5057971;28;47820;-59
2023/11/27 04:27:38;;;;;;;;;2.33;2.33;;;;;6.10;74.13;100555.41;5060627;28;45253;-59
2023/11/27 04:30:05;;;;;;;;;4.00;4.00;;;;;6.04;74.39;100552.97;5065779;28;45698;-59
2023/11/27 04:32:31;;;;;;;;;3.00;3.00;;;;;6.01;74.64;100558.38;5057532;28;45445;-59
2023/11/27 04:34:56;;;;;;;;;3.00;3.00;;;;;5.96;75.83;100547.09;5056975;28;45258;-59
2023/11/27 04:37:21;;;;;;;;;3.00;3.00;;;;;5.92;76.34;100551.59;5059236;28;69259;-59
2023/11/27 04:39:47;;;;;;;;;4.00;3.00;;;;;5.89;76.49;100550.84;5060387;28;45377;-59
2023/11/27 04:42:12;;;;;;;;;5.33;4.33;;;;;5.89;75.34;100542.91;5060252;28;45478;-59
2023/11/27 04:44:39;;;;;;;;;5.00;2.67;;;;;5.92;76.33;100543.69;5057401;28;73635;-59
2023/11/27 04:47:05;;;;;;;;;3.00;3.00;;;;;5.93;76.10;100531.34;5047684;28;45377;-59
2023/11/27 04:49:31;;;;;;;;;2.67;2.67;;;;;5.95;75.66;100529.50;5067059;28;45516;-59
2023/11/27 04:51:56;;;;;;;;;2.67;2.33;;;;;5.96;77.00;100520.69;5063452;28;51136;-59
2023/11/27 04:54:21;;;;;;;;;3.00;3.00;;;;;5.92;78.07;100516.44;5059157;28;70381;-59
2023/11/27 04:56:46;;;;;;;;;5.67;3.00;;;;;5.88;78.11;100507.75;5059811;28;45388;-59
2023/11/27 04:59:12;;;;;;;;;2.00;0.33;;;;;5.85;77.55;100499.06;5057445;28;66917;-59
2023/11/27 05:01:39;;;;;;;;;3.33;3.00;;;;;5.80;80.14;100494.81;5066001;28;45289;-59
2023/11/27 05:04:04;;;;;;;;;3.67;3.67;;;;;5.73;81.56;100476.59;5061737;28;45339;-59
2023/11/27 05:06:29;;;;;;;;;4.67;4.00;;;;;5.70;81.32;100474.09;5057581;28;70557;-59
2023/11/27 05:08:55;;;;;;;;;3.00;2.33;;;;;5.66;82.38;100459.25;5058337;28;69622;-59
2023/11/27 05:11:20;;;;;;;;;4.67;4.67;;;;;5.65;81.18;100463.69;5058455;28;60919;-59
2023/11/27 05:13:50;;;;;;;;;4.67;4.00;;;;;5.63;82.79;100465.50;5066292;28;45357;-59
2023/11/27 05:16:17;;;;;;;;;4.33;3.00;;;;;5.64;82.99;100469.88;5058997;28;45705;-59
2023/11/27 05:18:43;;;;;;;;;6.33;4.00;;;;;5.62;84.28;100459.38;5092000;27;45345;-59
2023/11/27 05:21:13;;;;;;;;;5.67;5.00;;;;;5.62;83.41;100462.00;5058520;28;46445;-59
2023/11/27 05:23:41;;;;;;;;;3.00;3.00;;;;;5.66;83.26;100453.97;5059623;28;45580;-59
2023/11/27 05:26:07;;;;;;;;;4.00;3.00;;;;;5.71;82.88;100463.47;5059145;28;45451;-59
2023/11/27 05:28:33;;;;;;;;;5.00;4.00;;;;;5.73;83.92;100453.72;5057916;28;45655;-59
2023/11/27 05:30:59;;;;;;;;;5.00;3.67;;;;;5.74;84.37;100446.66;5058308;28;46356;-59
2023/11/27 05:33:24;;;;;;;;;3.00;3.00;;;;;5.73;84.69;100443.16;5059127;28;45326;-59
2023/11/27 05:35:50;;;;;;;;;3.33;3.33;;;;;5.75;82.65;100432.53;5058496;28;45930;-59
2023/11/27 05:38:15;;;;;;;;;4.67;4.67;;;;;5.78;84.05;100428.00;5058395;28;54155;-59
2023/11/27 05:40:42;;;;;;;;;3.33;3.00;;;;;5.81;84.21;100421.75;5066038;28;57294;-59
2023/11/27 05:43:07;;;;;;;;;3.00;3.00;;;;;5.79;84.46;100429.75;5058684;28;45537;-59
2023/11/27 05:45:34;;;;;;;;;3.00;2.00;;;;;5.77;84.13;100426.28;5072465;28;45444;-59
2023/11/27 05:47:59;;;;;;;;;4.00;4.00;;;;;5.79;83.49;100426.25;5089590;27;45470;-59
2023/11/27 05:50:25;;;;;;;;;4.00;4.00;;;;;5.87;83.44;100423.34;5088394;27;45840;-59
2023/11/27 05:52:51;;;;;;;;;3.33;3.33;;;;;5.92;83.51;100414.31;5055640;28;66274;-59
2023/11/27 05:55:17;;;;;;;;;5.67;4.33;;;;;5.97;83.49;100412.38;5057316;28;45406;-59
2023/11/27 05:57:42;;;;;;;;;5.00;5.00;;;;;5.96;84.44;100404.50;5057767;28;45232;-59
2023/11/27 06:00:08;;;;;;;;;3.33;3.33;;;;;5.98;83.82;100402.69;5046921;28;75500;-59
2023/11/27 06:02:33;;;;;;;;;5.00;4.67;;;;;6.02;84.44;100392.88;5048443;28;45281;-59
2023/11/27 06:04:59;;;;;;;;;4.00;4.00;;;;;6.05;83.97;100398.03;5053138;28;68346;-59
2023/11/27 06:07:24;;;;;;;;;8.67;4.67;;;;;6.09;83.75;100395.25;5089186;27;69419;-59
2023/11/27 06:09:49;;;;;;;;;6.67;3.67;;;;;6.11;83.54;100396.06;5055736;28;46727;-59
2023/11/27 06:12:15;;;;;;;;;5.00;3.00;;;;;6.19;83.77;100386.97;5058187;28;50281;-59
2023/11/27 06:14:40;;;;;;;;;8.00;5.67;;;;;6.28;83.48;100378.69;5055934;28;62450;-59
2023/11/27 06:17:06;;;;;;;;;4.67;4.67;;;;;6.34;83.87;100374.97;5058583;28;45414;-59
2023/11/27 06:19:31;;;;;;;;;9.00;5.00;;;;;6.39;83.27;100370.34;5065395;28;45312;-59
2023/11/27 06:21:58;;;;;;;;;3.00;3.00;;;;;6.46;82.68;100370.03;5080603;27;73130;-60
2023/11/27 06:24:24;;;;;;;;;9.67;6.00;;;;;6.52;82.48;100374.22;5055492;28;45606;-59
2023/11/27 06:26:49;;;;;;;;;4.00;4.00;;;;;6.58;82.26;100371.34;5057032;28;45317;-59
2023/11/27 06:29:15;;;;;;;;;6.67;4.67;;;;;6.61;82.12;100362.44;5057352;28;74035;-59
2023/11/27 06:31:40;;;;;;;;;4.67;4.67;;;;;6.65;82.41;100357.84;5056867;28;45391;-59
2023/11/27 06:34:06;;;;;;;;;5.67;4.00;;;;;6.65;82.48;100356.09;5055807;28;49128;-60
2023/11/27 06:36:31;;;;;;;;;5.67;4.00;;;;;6.67;82.19;100337.53;5056295;28;67369;-59
2023/11/27 06:38:56;;;;;;;;;4.67;4.33;;;;;6.71;81.47;100336.47;5054712;28;59831;-59
2023/11/27 06:41:23;;;;;;;;;5.50;4.00;;;;;6.72;82.29;100330.28;5011592;28;1277688;-59
2023/11/27 06:43:48;;;;;;;;;3.33;3.33;;;;;6.74;81.82;100336.34;5062541;28;45418;-59
2023/11/27 06:46:14;;;;;;;;;5.00;3.00;;;;;6.76;82.26;100331.84;5054725;28;45670;-59
2023/11/27 06:48:39;;;;;;;;;4.67;3.67;;;;;6.81;81.81;100332.53;5073688;28;47303;-59
2023/11/27 06:51:05;;;;;;;;;5.00;3.67;;;;;6.85;81.26;100320.03;5069397;28;46780;-59
2023/11/27 06:53:30;;;;;;;;;7.00;4.67;;;;;6.88;81.56;100325.19;5061476;28;45394;-59
2023/11/27 06:55:55;;;;;;;;;4.33;3.00;;;;;6.90;81.30;100315.41;5056514;28;45379;-59
2023/11/27 06:58:21;;;;;;;;;2.00;2.00;;;;;6.93;81.64;100304.69;5056256;28;63800;-59
2023/11/27 07:00:46;;;;;;;;;4.00;4.00;;;;;6.96;81.28;100296.63;5090124;27;45923;-59
2023/11/27 07:03:12;;;;;;;;;6.00;5.00;;;;;7.02;80.79;100306.94;5063738;28;45316;-60
2023/11/27 07:05:37;;;;;;;;;3.67;3.67;;;;;7.02;81.11;100299.00;5049102;28;70368;-61
2023/11/27 07:08:03;;;;;;;;;2.00;2.00;;;;;7.05;80.62;100301.53;5057885;28;46649;-59
2023/11/27 07:10:29;;;;;;;;;5.00;4.00;;;;;7.07;80.94;100291.75;5073543;27;45689;-59
2023/11/27 07:12:55;;;;;;;;;4.67;3.00;;;;;7.12;80.82;100292.41;5058950;27;45459;-59
2023/11/27 07:15:20;;;;;;;;;3.00;3.00;;;;;7.11;79.65;100285.38;5089702;27;45568;-59
2023/11/27 07:17:46;;;;;;;;;3.00;3.00;;;;;7.08;80.17;100279.41;5058184;28;45491;-60
2023/11/27 07:20:17;;;;;;;;;3.00;3.00;;;;;7.03;80.56;100273.44;5052836;28;45440;-59
2023/11/27 07:22:43;;;;;;;;;3.00;3.00;;;;;7.01;80.17;100268.19;5057559;28;45514;-58
2023/11/27 07:25:09;;;;;;;;;3.67;3.67;;;;;7.02;80.54;100271.72;5088741;27;45542;-58
2023/11/27 07:27:34;;;;;;;;;5.33;3.00;;;;;7.04;80.84;100272.50;5056103;28;74841;-58
2023/11/27 07:30:01;;;;;;;;;3.00;1.00;;;;;7.06;80.73;100271.50;5054608;28;45528;-58
2023/11/27 07:32:26;;;;;;;;;5.00;4.00;;;;;7.09;80.27;100270.50;5060327;27;45525;-59
2023/11/27 07:34:51;;;;;;;;;3.67;3.33;;;;;7.08;80.25;100256.44;5061014;28;66637;-58
2023/11/27 07:37:17;;;;;;;;;5.00;3.00;;;;;7.09;79.79;100254.66;5066033;28;68503;-58
2023/11/27 07:39:44;;;;;;;;;2.00;2.00;;;;;7.12;80.22;100247.44;5066689;28;66554;-59
2023/11/27 07:42:10;;;;;;;;;4.00;4.00;;;;;7.17;80.64;100254.31;5063757;28;45478;-58
2023/11/27 07:44:35;;;;;;;;;4.00;4.00;;;;;7.20;80.29;100256.84;5059922;28;45820;-58
2023/11/27 07:47:01;;;;;;;;;5.00;3.00;;;;;7.19;80.63;100252.47;5059053;28;64117;-58
2023/11/27 07:49:26;;;;;;;;;4.00;3.00;;;;;7.16;80.44;100240.22;5061238;28;45358;-59
2023/11/27 07:51:57;;;;;;;;;3.67;3.00;;;;;7.18;80.13;100230.44;5041946;28;59427;-58
2023/11/27 07:54:23;;;;;;;;;3.33;3.00;;;;;7.17;80.81;100219.91;5060477;28;45429;-58
2023/11/27 07:56:48;;;;;;;;;3.00;3.00;;;;;7.15;80.34;100213.84;5078955;27;45315;-58
2023/11/27 07:59:14;;;;;;;;;3.00;3.00;;;;;7.17;80.53;100210.22;5041689;28;45559;-59
2023/11/27 08:01:39;;;;;;;;;3.33;3.33;;;;;7.20;80.12;100214.50;5059967;28;58713;-59
2023/11/27 08:04:04;;;;;;;;;2.00;2.00;;;;;7.22;80.38;100213.50;5059250;28;71593;-60
2023/11/27 08:06:30;;;;;;;;;2.00;1.33;;;;;7.24;79.92;100216.09;5056999;28;74551;-59
2023/11/27 08:08:57;;;;;;;;;6.00;3.00;;;;;7.23;79.68;100209.91;5071169;28;73222;-60
2023/11/27 08:11:33;;;;;;;;;5.00;3.67;;;;;7.20;80.20;100203.94;5072593;28;45408;-60
2023/11/27 08:13:58;;;;;;;;;5.67;3.67;;;;;7.19;79.55;100203.06;5058671;28;45354;-58
2023/11/27 08:16:25;;;;;;;;;2.00;2.00;;;;;7.14;80.59;100183.03;5064142;28;46154;-59
2023/11/27 08:18:50;;;;;;;;;4.00;2.00;;;;;7.15;80.37;100192.69;5064761;27;45466;-59
2023/11/27 08:21:17;;;;;;;;;3.67;3.67;;;;;7.20;79.95;100191.56;5060133;28;45401;-59
2023/11/27 08:23:42;;;;;;;;;4.00;4.00;;;;;7.20;79.95;100188.91;5060434;28;45620;-59
2023/11/27 08:26:08;;;;;;;;;4.00;3.67;;;;;7.24;80.27;100192.28;5058460;28;52461;-59
2023/11/27 08:28:33;;;;;;;;;2.00;2.00;;;;;7.22;81.32;100179.13;5060243;28;45272;-59
2023/11/27 08:30:59;;;;;;;;;5.00;4.00;;;;;7.20;81.35;100159.81;5058829;28;45318;-60
2023/11/27 08:33:27;;;;;;;;;6.00;3.33;;;;;7.22;81.32;100146.50;5058889;28;60922;-59
2023/11/27 08:35:53;;;;;;;;;2.00;2.00;;;;;7.26;81.31;100153.38;5049885;28;45375;-59
2023/11/27 08:38:19;;;;;;;;;4.00;2.00;;;;;7.25;81.90;100149.88;5060307;28;45346;-59
2023/11/27 08:40:44;;;;;;;;;2.00;2.00;;;;;7.24;81.99;100152.59;5060710;28;45413;-59
2023/11/27 08:43:10;;;;;;;;;6.00;4.00;;;;;7.26;81.13;100153.38;5058545;28;45358;-59
2023/11/27 08:45:35;;;;;;;;;4.00;3.00;;;;;7.29;81.91;100154.09;5057992;28;67812;-60
2023/11/27 08:48:00;;;;;;;;;3.00;3.00;;;;;7.33;81.43;100144.22;5058882;28;71250;-59
2023/11/27 08:50:29;;;;;;;;;4.33;2.67;;;;;7.36;81.50;100138.78;5059291;28;69647;-59
2023/11/27 08:52:58;;;;;;;;;5.00;3.00;;;;;7.36;81.74;100136.13;5059515;28;45462;-60
2023/11/27 08:55:31;;;;;;;;;1.33;1.33;;;;;7.35;82.13;100136.22;5060160;28;46190;-59
2023/11/27 08:58:01;;;;;;;;;6.33;1.67;;;;;7.35;82.00;100129.13;5091509;27;45551;-59
2023/11/27 09:00:29;;;;;;;;;2.00;2.00;;;;;7.37;82.03;100123.78;5059738;28;45756;-60
2023/11/27 09:02:56;;;;;;;;;2.00;2.00;;;;;7.40;81.76;100116.53;5059501;28;45532;-59
2023/11/27 09:05:26;;;;;;;;;3.00;2.00;;;;;7.44;81.73;100110.19;5058326;28;46543;-59
2023/11/27 09:07:55;;;;;;;;;3.67;2.00;;;;;7.49;81.46;100109.94;5059489;28;45540;-61
2023/11/27 09:10:21;;;;;;;;;12.00;11.67;;;;;7.55;81.82;100099.06;5053015;28;45329;-60
2023/11/27 09:12:49;;;;;;;;;17.00;15.00;;;;;7.54;82.33;100094.69;5060275;28;45635;-60
2023/11/27 09:15:15;;;;;;;;;2.00;2.00;;;;;7.57;82.20;100093.69;5056261;28;51625;-60
2023/11/27 09:17:41;;;;;;;;;4.00;4.00;;;;;7.62;81.86;100089.03;5059579;28;45391;-60
2023/11/27 09:20:09;;;;;;;;;4.67;3.00;;;;;7.66;81.83;100079.16;5059187;28;46050;-60
2023/11/27 09:22:34;;;;;;;;;5.00;4.00;;;;;7.68;81.93;100078.16;5058835;28;45700;-60
2023/11/27 09:25:00;;;;;;;;;5.00;4.00;;;;;7.69;81.20;100085.19;5057644;28;75355;-59
2023/11/27 09:27:25;;;;;;;;;4.33;4.00;;;;;7.65;82.07;100080.94;5059502;28;45318;-60
2023/11/27 09:29:50;;;;;;;;;5.00;3.67;;;;;7.65;82.11;100072.16;5058127;28;67907;-60
2023/11/27 09:32:16;;;;;;;;;4.67;4.33;;;;;7.67;82.03;100072.94;5058268;28;69883;-60
2023/11/27 09:34:41;;;;;;;;;3.33;3.33;;;;;7.69;82.14;100066.63;5058051;28;71681;-60
2023/11/27 09:37:06;;;;;;;;;5.00;5.00;;;;;7.72;82.59;100057.69;5058366;28;63234;-59
2023/11/27 09:39:32;;;;;;;;;4.00;4.00;;;;;7.74;82.38;100056.69;5058255;28;45458;-60
2023/11/27 09:41:58;;;;;;;;;4.67;4.67;;;;;7.76;81.86;100048.66;5056772;28;58435;-60
2023/11/27 09:44:24;;;;;;;;;3.67;3.67;;;;;7.75;82.10;100053.06;5063292;28;46481;-59
2023/11/27 09:46:50;;;;;;;;;5.00;5.00;;;;;7.77;82.43;100037.13;5057822;28;45288;-59
2023/11/27 09:49:23;;;;;;;;;6.67;5.00;;;;;7.82;82.07;100042.19;5057582;28;45603;-59
2023/11/27 09:51:48;;;;;;;;;4.00;4.00;;;;;7.81;82.61;100035.16;5059313;28;45464;-59
2023/11/27 09:54:16;;;;;;;;;4.00;4.00;;;;;7.80;82.32;100039.63;5058236;28;46391;-59
2023/11/27 09:56:44;;;;;;;;;3.00;3.00;;;;;7.81;82.68;100024.56;5057502;28;45682;-59
2023/11/27 09:59:11;;;;;;;;;4.33;3.67;;;;;7.79;82.85;100029.97;5058169;28;45418;-59
2023/11/27 10:01:36;;;;;;;;;4.00;3.00;;;;;7.78;83.56;100031.75;5058174;28;45253;-59
2023/11/27 10:04:07;;;;;;;;;5.00;4.00;;;;;7.74;83.81;100019.63;5057106;28;46560;-59
2023/11/27 10:06:34;;;;;;;;;4.00;3.00;;;;;7.71;83.37;100013.63;5058987;28;45315;-60
2023/11/27 10:09:04;;;;;;;;;3.33;3.00;;;;;7.67;83.77;100012.91;5058844;28;45489;-60
2023/11/27 10:11:33;;;;;;;;;5.33;4.00;;;;;7.70;83.94;100018.03;5058832;28;45465;-59
2023/11/27 10:14:10;;;;;;;;;3.00;3.00;;;;;7.74;84.69;100008.16;5057793;28;46341;-63
2023/11/27 10:16:36;;;;;;;;;3.67;2.00;;;;;7.75;84.72;100001.94;5057540;28;45321;-58
2023/11/27 10:19:06;;;;;;;;;3.00;3.00;;;;;7.77;84.21;100000.06;5056067;28;45357;-59
2023/11/27 10:21:35;;;;;;;;;4.67;3.00;;;;;7.79;84.73;100000.84;5058778;28;45399;-59
2023/11/27 10:24:01;;;;;;;;;2.67;2.67;;;;;7.83;83.51;100001.53;5056623;28;48264;-59
2023/11/27 10:26:33;;;;;;;;;4.00;2.67;;;;;7.78;84.20;99989.41;5058833;28;45464;-60
2023/11/27 10:28:58;;;;;;;;;3.00;3.00;;;;;7.78;82.44;99973.50;5058001;28;45562;-59
2023/11/27 10:31:24;;;;;;;;;5.00;3.33;;;;;7.76;82.96;99970.06;5058006;28;58669;-59
2023/11/27 10:33:50;;;;;;;;;2.00;2.00;;;;;7.75;83.93;99968.34;5058354;28;45471;-59
2023/11/27 10:36:23;;;;;;;;;4.00;2.00;;;;;7.76;84.87;99956.84;5058304;28;45359;-59
2023/11/27 10:38:59;;;;;;;;;3.67;2.00;;;;;7.81;84.93;99955.75;5058838;28;45938;-59
2023/11/27 10:41:24;;;;;;;;;3.67;2.00;;;;;7.84;84.98;99950.31;5056380;28;45283;-59
2023/11/27 10:43:50;;;;;;;;;1.67;1.67;;;;;7.84;84.57;99951.16;5037049;28;75417;-59
2023/11/27 10:46:16;;;;;;;;;3.00;2.00;;;;;7.85;86.84;99934.34;5036303;28;45256;-59
2023/11/27 10:48:42;;;;;;;;;2.00;2.00;;;;;7.87;86.14;99931.59;5038989;28;63157;-60
2023/11/27 10:51:12;;;;;;;;;7.00;4.33;;;;;7.88;85.60;99920.91;5039834;28;45514;-59
2023/11/27 10:53:38;;;;;;;;;1.33;1.33;;;;;7.88;85.91;99907.69;5040022;28;45422;-59
2023/11/27 10:56:05;;;;;;;;;4.67;2.00;;;;;7.90;85.66;99910.25;5035513;28;69876;-59
2023/11/27 10:58:31;;;;;;;;;2.33;1.33;;;;;7.91;85.41;99901.38;5040116;28;45332;-59
2023/11/27 11:00:57;;;;;;;;;2.33;2.33;;;;;7.93;85.98;99899.50;5039425;28;45307;-59
2023/11/27 11:03:24;;;;;;;;;4.00;3.00;;;;;7.97;85.38;99892.25;5040080;28;46115;-59
2023/11/27 11:05:56;;;;;;;;;2.67;2.67;;;;;7.98;85.73;99889.53;5038930;28;45400;-60
2023/11/27 11:08:32;;;;;;;;;5.00;2.00;;;;;8.02;84.74;99882.28;5038317;28;45296;-59
2023/11/27 11:10:59;;;;;;;;;1.00;1.00;;;;;8.01;85.68;99873.47;5045799;28;45421;-59
2023/11/27 11:13:25;;;;;;;;;2.33;2.33;;;;;8.01;85.14;99862.03;5043191;28;47010;-62
2023/11/27 11:16:14;;;;;;;;;1.33;1.33;;;;;8.03;85.57;99868.06;5041072;28;45528;-59
2023/11/27 11:19:07;;;;;;;;;2.00;2.00;;;;;8.07;84.17;99867.84;5042891;28;45402;-59
2023/11/27 11:21:57;;;;;;;;;2.67;2.67;;;;;8.09;84.91;99849.19;5041205;28;45384;-59
2023/11/27 11:24:31;;;;;;;;;0.00;0.00;;;;;8.08;85.09;99852.78;5036209;28;46291;-61
2023/11/27 11:27:08;;;;;;;;;2.00;2.00;;;;;8.09;84.33;99849.19;5039593;28;45355;-60
2023/11/27 11:29:44;;;;;;;;;1.67;1.67;;;;;8.11;85.42;99840.25;5041215;28;45383;-59